otland.net alexa rank chart, otland.net alexa rank daily changes

otland.net alexa rank chart, otland.net alexa rank daily changes

otland.net
Actual rank:
191 052

RANK HISTORY

Date Rank Diff
2016/12/08 191 052 -1 610
2016/12/07 192 662 +3 952
2016/12/06 188 710 -2 658
2016/12/05 191 368 -1 359
2016/12/04 192 727 -6 151
2016/12/02 198 878 -2 124
2016/12/01 201 002 +2 672
2016/11/30 198 330 +59
2016/11/29 198 271 +190
2016/11/28 198 081 +280
2016/11/27 197 801 -9 606
2016/11/26 207 407 -5 542
2016/11/25 212 949 +1 594
2016/11/24 211 355 -2 420
2016/11/23 213 775 -8 179
2016/11/19 221 954 +1 577
2016/11/18 220 377 +5 746
2016/11/17 214 631 +161
2016/11/16 214 470 -4 883
2016/11/15 219 353 -10 908
2016/11/14 230 261 -1 148
2016/11/13 231 409 -4 306
2016/11/12 235 715 -707
2016/11/11 236 422 -4 880
2016/11/10 241 302 +114
2016/11/09 241 188 +1 006
2016/11/08 240 182 -1 099
2016/11/07 241 281 -13 657
2016/11/06 254 938 +5 017
2016/11/05 249 921 -1 590
2016/11/04 251 511 +2 506
2016/11/03 249 005 +11 229
2016/11/02 237 776 -2 254
2016/11/01 240 030 +1 688
2016/10/31 238 342 -15 002
2016/10/30 253 344 -5 594
2016/10/29 258 938 +6 316
2016/10/28 252 622 +3 324
2016/10/27 249 298 +1 817
2016/10/26 247 481 -2 002
2016/10/25 249 483 -7 688
2016/10/24 257 171 +3 062
2016/10/23 254 109 -32 928
2016/10/22 287 037 -2 780
2016/10/21 289 817 +16 770
2016/10/20 273 047 +19 921
2016/10/19 253 126 -1 897
2016/10/18 255 023 -18 753
2016/10/17 273 776 -10 268
2016/10/16 284 044 -1 509
2016/10/15 285 553 +84 066
2016/10/14 201 487 +1 740
2016/10/13 199 747 -4 445
2016/10/12 204 192 +6 124
2016/10/11 198 068 +1 818
2016/10/10 196 250 -678
2016/10/09 196 928

WIDGET FOR YOUR SITE

DOMAINS WITH THE NEAREST RANK

Domain Rank
isexpro.net 191 047
sextails.com 191 048
ulango.tv 191 049
aura-ilmu.com 191 050
audiokinetic.com 191 051
otland.net 191 052
mamsila.ru 191 053
khushisansar.com 191 054
cravebabes.com 191 055
dibru.online 191 056
seasonalgo.com 191 057

DOMAINS WITH THE NEAREST RANK BY TLD .net

Domain Rank
thesmilefiles.net 190 894
ff14channel.net 190 951
qududu.net 190 981
educa24.net 190 989
isexpro.net 191 047
otland.net 191 052
erogazou-ch.net 191 060
fisdk12.net 191 075
cheaperthandirt.net 191 110
augengeradeaus.net 191 126
ipokabu.net 191 167